Terminal Aerodrome Forecast
Issued by NWS

Home | Current Version | Previous Version | Text Only | Print | Product List | Glossary On
Versions: 1 2 3 4 5 6 7 8 9 10 11 12 13 14
000
FTPA31 PHFO 232042 AAA
TAFHOG
TAF AMD
PHOG 232042Z 2321/2418 05018G26KT 6SM -SHRA SCT035 BKN050
      TEMPO 2322/2402 3SM SHRA BKN030 OVC050
     FM240600 05012G20KT P6SM VCSH SCT035 BKN050
      AMD LTD TO VIS AND WIND 2409/2416=

USA.gov is the U.S. government's official web portal to all federal, state and local government web resources and services.